Abraham Baldwin College, Georgia
Current Conditions -  °F | °C
As of 10:55 PM on Saturday 22 Nov 2014 (Local Time) from KTMA Reporting Station
Drizzle Drizzle  
Wind Chill: 57°   Ceiling: 500
Heat Index: 57°   Visibility: 7mi
Dew Point: 57°   Wind: 8mph
Humidity: 99%   Direction: 50°NE
Pressure: 30.17"   Gusts: NA
Location:  31.4406°N, 83.464°W
Report Text: KTMA 230355Z AUTO 05007KT 7SM -DZ OVC005 14/14 A3017 RMK AO2 T01400138
Loading
Personal Weather Stations






























Interactive Weather Map New forecast layout! Learn more

10-Day Weather Forecast

Advertisements
Track Severe Weather on mobile